sensor_id;sensor_type;location;lat;lon;timestamp;P1;durP1;ratioP1;P2;durP2;ratioP2
66327;SDS011;53133;52.862;6.602;2023-02-28T00:00:30;9.02;;;3.42;;
66327;SDS011;53133;52.862;6.602;2023-02-28T00:02:57;7.43;;;3.63;;
66327;SDS011;53133;52.862;6.602;2023-02-28T00:05:23;5.85;;;3.72;;
66327;SDS011;53133;52.862;6.602;2023-02-28T00:07:50;7.50;;;3.33;;
66327;SDS011;53133;52.862;6.602;2023-02-28T00:10:17;8.23;;;3.08;;
66327;SDS011;53133;52.862;6.602;2023-02-28T00:12:54;7.18;;;3.38;;
66327;SDS011;53133;52.862;6.602;2023-02-28T00:15:22;7.07;;;3.53;;
66327;SDS011;53133;52.862;6.602;2023-02-28T00:17:48;7.00;;;3.55;;
66327;SDS011;53133;52.862;6.602;2023-02-28T00:20:14;9.18;;;3.88;;
66327;SDS011;53133;52.862;6.602;2023-02-28T00:22:44;7.72;;;3.30;;
66327;SDS011;53133;52.862;6.602;2023-02-28T00:25:13;7.20;;;3.25;;
66327;SDS011;53133;52.862;6.602;2023-02-28T00:27:40;6.05;;;3.10;;
66327;SDS011;53133;52.862;6.602;2023-02-28T00:30:08;8.27;;;3.70;;
66327;SDS011;53133;52.862;6.602;2023-02-28T00:32:36;7.18;;;3.55;;
66327;SDS011;53133;52.862;6.602;2023-02-28T00:35:02;9.27;;;3.75;;
66327;SDS011;53133;52.862;6.602;2023-02-28T00:37:28;10.05;;;3.90;;
66327;SDS011;53133;52.862;6.602;2023-02-28T00:39:54;7.95;;;3.38;;
66327;SDS011;53133;52.862;6.602;2023-02-28T00:42:19;9.40;;;3.85;;
66327;SDS011;53133;52.862;6.602;2023-02-28T00:44:45;11.07;;;3.60;;
66327;SDS011;53133;52.862;6.602;2023-02-28T00:47:10;7.60;;;3.42;;
66327;SDS011;53133;52.862;6.602;2023-02-28T00:49:36;8.60;;;3.70;;
66327;SDS011;53133;52.862;6.602;2023-02-28T00:52:01;9.27;;;3.55;;
66327;SDS011;53133;52.862;6.602;2023-02-28T00:54:28;8.63;;;3.65;;
66327;SDS011;53133;52.862;6.602;2023-02-28T00:56:53;12.32;;;4.05;;
66327;SDS011;53133;52.862;6.602;2023-02-28T00:59:19;8.82;;;3.80;;
66327;SDS011;53133;52.862;6.602;2023-02-28T01:01:45;14.20;;;3.65;;
66327;SDS011;53133;52.862;6.602;2023-02-28T01:04:11;7.55;;;3.50;;
66327;SDS011;53133;52.862;6.602;2023-02-28T01:06:37;7.97;;;3.80;;
66327;SDS011;53133;52.862;6.602;2023-02-28T01:09:04;7.70;;;3.67;;
66327;SDS011;53133;52.862;6.602;2023-02-28T01:11:30;8.98;;;3.90;;
66327;SDS011;53133;52.862;6.602;2023-02-28T01:13:56;9.23;;;3.63;;
66327;SDS011;53133;52.862;6.602;2023-02-28T01:16:22;8.60;;;4.40;;
66327;SDS011;53133;52.862;6.602;2023-02-28T01:18:47;10.18;;;3.85;;
66327;SDS011;53133;52.862;6.602;2023-02-28T01:21:14;6.25;;;3.70;;
66327;SDS011;53133;52.862;6.602;2023-02-28T01:23:41;10.50;;;3.90;;
66327;SDS011;53133;52.862;6.602;2023-02-28T01:26:08;6.95;;;4.10;;
66327;SDS011;53133;52.862;6.602;2023-02-28T01:28:35;7.97;;;3.72;;
66327;SDS011;53133;52.862;6.602;2023-02-28T01:31:01;9.57;;;3.45;;
66327;SDS011;53133;52.862;6.602;2023-02-28T01:33:27;7.07;;;3.60;;
66327;SDS011;53133;52.862;6.602;2023-02-28T01:36:00;6.68;;;3.85;;
66327;SDS011;53133;52.862;6.602;2023-02-28T01:38:30;7.85;;;3.67;;
66327;SDS011;53133;52.862;6.602;2023-02-28T01:40:56;7.57;;;4.00;;
66327;SDS011;53133;52.862;6.602;2023-02-28T01:43:23;6.10;;;3.35;;
66327;SDS011;53133;52.862;6.602;2023-02-28T01:45:52;11.13;;;4.13;;
66327;SDS011;53133;52.862;6.602;2023-02-28T01:48:19;9.52;;;3.47;;
66327;SDS011;53133;52.862;6.602;2023-02-28T01:50:51;10.20;;;3.50;;
66327;SDS011;53133;52.862;6.602;2023-02-28T01:53:19;7.97;;;3.65;;
66327;SDS011;53133;52.862;6.602;2023-02-28T01:55:51;6.63;;;3.35;;
66327;SDS011;53133;52.862;6.602;2023-02-28T01:58:18;6.05;;;3.67;;
66327;SDS011;53133;52.862;6.602;2023-02-28T02:00:44;7.03;;;3.20;;
66327;SDS011;53133;52.862;6.602;2023-02-28T02:03:13;6.88;;;3.83;;
66327;SDS011;53133;52.862;6.602;2023-02-28T02:05:43;9.35;;;3.75;;
66327;SDS011;53133;52.862;6.602;2023-02-28T02:08:13;7.80;;;3.28;;
66327;SDS011;53133;52.862;6.602;2023-02-28T02:10:54;7.07;;;2.95;;
66327;SDS011;53133;52.862;6.602;2023-02-28T02:15:56;6.57;;;2.97;;
66327;SDS011;53133;52.862;6.602;2023-02-28T02:27:08;6.47;;;3.67;;
66327;SDS011;53133;52.862;6.602;2023-02-28T02:32:47;6.07;;;3.42;;
66327;SDS011;53133;52.862;6.602;2023-02-28T02:38:34;7.20;;;3.30;;
66327;SDS011;53133;52.862;6.602;2023-02-28T02:44:17;4.80;;;3.30;;
66327;SDS011;53133;52.862;6.602;2023-02-28T02:46:45;12.25;;;3.53;;
66327;SDS011;53133;52.862;6.602;2023-02-28T02:49:16;5.40;;;3.30;;
66327;SDS011;53133;52.862;6.602;2023-02-28T02:51:47;5.65;;;3.13;;
66327;SDS011;53133;52.862;6.602;2023-02-28T02:54:17;5.45;;;3.35;;
66327;SDS011;53133;52.862;6.602;2023-02-28T02:56:48;10.82;;;3.97;;
66327;SDS011;53133;52.862;6.602;2023-02-28T02:59:16;7.20;;;3.80;;
66327;SDS011;53133;52.862;6.602;2023-02-28T03:01:46;8.18;;;3.65;;
66327;SDS011;53133;52.862;6.602;2023-02-28T03:04:16;8.05;;;3.95;;
66327;SDS011;53133;52.862;6.602;2023-02-28T03:06:45;8.45;;;3.72;;
66327;SDS011;53133;52.862;6.602;2023-02-28T03:09:11;7.18;;;3.60;;
66327;SDS011;53133;52.862;6.602;2023-02-28T03:11:37;8.38;;;4.15;;
66327;SDS011;53133;52.862;6.602;2023-02-28T03:16:58;6.75;;;3.90;;
66327;SDS011;53133;52.862;6.602;2023-02-28T03:22:15;10.65;;;4.07;;
66327;SDS011;53133;52.862;6.602;2023-02-28T03:24:57;7.75;;;3.80;;
66327;SDS011;53133;52.862;6.602;2023-02-28T03:27:39;8.55;;;4.45;;
66327;SDS011;53133;52.862;6.602;2023-02-28T03:30:08;6.93;;;4.00;;
66327;SDS011;53133;52.862;6.602;2023-02-28T03:33:03;7.72;;;4.50;;
66327;SDS011;53133;52.862;6.602;2023-02-28T03:35:31;9.23;;;4.00;;
66327;SDS011;53133;52.862;6.602;2023-02-28T03:38:01;9.43;;;4.90;;
66327;SDS011;53133;52.862;6.602;2023-02-28T03:40:32;10.90;;;4.97;;
66327;SDS011;53133;52.862;6.602;2023-02-28T03:43:03;10.73;;;5.60;;
66327;SDS011;53133;52.862;6.602;2023-02-28T03:45:34;9.75;;;5.88;;
66327;SDS011;53133;52.862;6.602;2023-02-28T03:48:03;11.10;;;5.82;;
66327;SDS011;53133;52.862;6.602;2023-02-28T03:50:40;13.75;;;6.50;;
66327;SDS011;53133;52.862;6.602;2023-02-28T03:53:19;12.70;;;7.03;;
66327;SDS011;53133;52.862;6.602;2023-02-28T03:56:17;14.57;;;7.60;;
66327;SDS011;53133;52.862;6.602;2023-02-28T04:01:25;13.30;;;7.55;;
66327;SDS011;53133;52.862;6.602;2023-02-28T04:04:00;15.80;;;7.80;;
66327;SDS011;53133;52.862;6.602;2023-02-28T04:06:25;14.60;;;7.88;;
66327;SDS011;53133;52.862;6.602;2023-02-28T04:08:52;14.05;;;8.20;;
66327;SDS011;53133;52.862;6.602;2023-02-28T04:11:33;16.58;;;8.60;;
66327;SDS011;53133;52.862;6.602;2023-02-28T04:14:00;15.38;;;8.10;;
66327;SDS011;53133;52.862;6.602;2023-02-28T04:16:27;14.35;;;7.93;;
66327;SDS011;53133;52.862;6.602;2023-02-28T04:18:54;15.27;;;8.05;;
66327;SDS011;53133;52.862;6.602;2023-02-28T04:21:27;16.08;;;7.85;;
66327;SDS011;53133;52.862;6.602;2023-02-28T04:24:04;14.48;;;7.63;;
66327;SDS011;53133;52.862;6.602;2023-02-28T04:26:30;13.55;;;7.32;;
66327;SDS011;53133;52.862;6.602;2023-02-28T04:28:57;16.33;;;8.35;;
66327;SDS011;53133;52.862;6.602;2023-02-28T04:31:23;14.35;;;8.32;;
66327;SDS011;53133;52.862;6.602;2023-02-28T04:33:49;17.70;;;9.05;;
66327;SDS011;53133;52.862;6.602;2023-02-28T04:36:15;15.60;;;7.97;;
66327;SDS011;53133;52.862;6.602;2023-02-28T04:38:42;15.60;;;7.95;;
66327;SDS011;53133;52.862;6.602;2023-02-28T04:41:09;16.33;;;8.52;;
66327;SDS011;53133;52.862;6.602;2023-02-28T04:43:34;17.58;;;8.57;;
66327;SDS011;53133;52.862;6.602;2023-02-28T04:46:01;14.48;;;8.52;;
66327;SDS011;53133;52.862;6.602;2023-02-28T04:48:28;13.27;;;8.05;;
66327;SDS011;53133;52.862;6.602;2023-02-28T04:50:59;14.40;;;9.30;;
66327;SDS011;53133;52.862;6.602;2023-02-28T04:53:29;13.98;;;8.15;;
66327;SDS011;53133;52.862;6.602;2023-02-28T04:55:55;15.00;;;8.38;;
66327;SDS011;53133;52.862;6.602;2023-02-28T04:58:21;18.40;;;9.02;;
66327;SDS011;53133;52.862;6.602;2023-02-28T05:00:50;16.35;;;9.00;;
66327;SDS011;53133;52.862;6.602;2023-02-28T05:03:16;19.15;;;9.25;;
66327;SDS011;53133;52.862;6.602;2023-02-28T05:05:42;17.63;;;9.77;;
66327;SDS011;53133;52.862;6.602;2023-02-28T05:08:07;17.52;;;9.30;;
66327;SDS011;53133;52.862;6.602;2023-02-28T05:10:34;24.08;;;10.32;;
66327;SDS011;53133;52.862;6.602;2023-02-28T05:13:00;21.65;;;9.77;;
66327;SDS011;53133;52.862;6.602;2023-02-28T05:15:26;19.42;;;9.50;;
66327;SDS011;53133;52.862;6.602;2023-02-28T05:17:52;15.93;;;9.02;;
66327;SDS011;53133;52.862;6.602;2023-02-28T05:20:17;19.63;;;10.18;;
66327;SDS011;53133;52.862;6.602;2023-02-28T05:22:43;19.60;;;10.20;;
66327;SDS011;53133;52.862;6.602;2023-02-28T05:25:13;18.95;;;10.68;;
66327;SDS011;53133;52.862;6.602;2023-02-28T05:27:43;20.10;;;10.45;;
66327;SDS011;53133;52.862;6.602;2023-02-28T05:30:09;18.48;;;9.98;;
66327;SDS011;53133;52.862;6.602;2023-02-28T05:32:36;18.50;;;9.38;;
66327;SDS011;53133;52.862;6.602;2023-02-28T05:35:08;18.27;;;10.07;;
66327;SDS011;53133;52.862;6.602;2023-02-28T05:37:35;16.33;;;9.35;;
66327;SDS011;53133;52.862;6.602;2023-02-28T05:40:01;19.17;;;9.82;;
66327;SDS011;53133;52.862;6.602;2023-02-28T05:42:31;16.67;;;9.23;;
66327;SDS011;53133;52.862;6.602;2023-02-28T05:44:57;17.33;;;9.80;;
66327;SDS011;53133;52.862;6.602;2023-02-28T05:47:23;20.03;;;9.77;;
66327;SDS011;53133;52.862;6.602;2023-02-28T05:49:49;19.17;;;9.93;;
66327;SDS011;53133;52.862;6.602;2023-02-28T05:52:14;19.10;;;9.53;;
66327;SDS011;53133;52.862;6.602;2023-02-28T05:54:40;20.63;;;10.48;;
66327;SDS011;53133;52.862;6.602;2023-02-28T05:57:06;17.60;;;9.63;;
66327;SDS011;53133;52.862;6.602;2023-02-28T05:59:32;20.60;;;9.77;;
66327;SDS011;53133;52.862;6.602;2023-02-28T06:01:58;18.40;;;9.50;;
66327;SDS011;53133;52.862;6.602;2023-02-28T06:04:23;16.23;;;8.98;;
66327;SDS011;53133;52.862;6.602;2023-02-28T06:06:49;19.33;;;9.40;;
66327;SDS011;53133;52.862;6.602;2023-02-28T06:09:15;18.77;;;9.98;;
66327;SDS011;53133;52.862;6.602;2023-02-28T06:11:42;18.13;;;10.07;;
66327;SDS011;53133;52.862;6.602;2023-02-28T06:14:09;17.87;;;10.10;;
66327;SDS011;53133;52.862;6.602;2023-02-28T06:16:42;19.52;;;9.73;;
66327;SDS011;53133;52.862;6.602;2023-02-28T06:19:08;17.23;;;9.97;;
66327;SDS011;53133;52.862;6.602;2023-02-28T06:21:34;20.55;;;10.75;;
66327;SDS011;53133;52.862;6.602;2023-02-28T06:24:00;18.83;;;9.88;;
66327;SDS011;53133;52.862;6.602;2023-02-28T06:26:26;19.35;;;10.02;;
66327;SDS011;53133;52.862;6.602;2023-02-28T06:28:52;16.83;;;9.70;;
66327;SDS011;53133;52.862;6.602;2023-02-28T06:31:18;20.00;;;10.50;;
66327;SDS011;53133;52.862;6.602;2023-02-28T06:33:44;19.90;;;10.93;;
66327;SDS011;53133;52.862;6.602;2023-02-28T06:36:11;18.13;;;10.63;;
66327;SDS011;53133;52.862;6.602;2023-02-28T06:38:38;24.02;;;11.07;;
66327;SDS011;53133;52.862;6.602;2023-02-28T06:41:04;21.15;;;11.23;;
66327;SDS011;53133;52.862;6.602;2023-02-28T06:43:31;18.85;;;9.90;;
66327;SDS011;53133;52.862;6.602;2023-02-28T06:46:00;17.63;;;9.98;;
66327;SDS011;53133;52.862;6.602;2023-02-28T06:48:27;19.23;;;10.43;;
66327;SDS011;53133;52.862;6.602;2023-02-28T06:51:07;19.27;;;10.20;;
66327;SDS011;53133;52.862;6.602;2023-02-28T06:53:39;20.85;;;10.30;;
66327;SDS011;53133;52.862;6.602;2023-02-28T06:56:06;17.30;;;10.25;;
66327;SDS011;53133;52.862;6.602;2023-02-28T06:58:33;20.23;;;10.65;;
66327;SDS011;53133;52.862;6.602;2023-02-28T07:00:58;19.42;;;10.18;;
66327;SDS011;53133;52.862;6.602;2023-02-28T07:03:24;22.50;;;11.65;;
66327;SDS011;53133;52.862;6.602;2023-02-28T07:05:50;21.15;;;11.00;;
66327;SDS011;53133;52.862;6.602;2023-02-28T07:08:16;22.50;;;11.30;;
66327;SDS011;53133;52.862;6.602;2023-02-28T07:10:42;21.35;;;10.70;;
66327;SDS011;53133;52.862;6.602;2023-02-28T07:13:08;20.80;;;11.30;;
66327;SDS011;53133;52.862;6.602;2023-02-28T07:15:35;18.50;;;10.15;;
66327;SDS011;53133;52.862;6.602;2023-02-28T07:18:01;21.43;;;11.10;;
66327;SDS011;53133;52.862;6.602;2023-02-28T07:20:28;20.88;;;10.70;;
66327;SDS011;53133;52.862;6.602;2023-02-28T07:22:54;22.88;;;11.65;;
66327;SDS011;53133;52.862;6.602;2023-02-28T07:25:23;19.92;;;10.73;;
66327;SDS011;53133;52.862;6.602;2023-02-28T07:27:49;21.60;;;11.18;;
66327;SDS011;53133;52.862;6.602;2023-02-28T07:30:15;17.42;;;10.05;;
66327;SDS011;53133;52.862;6.602;2023-02-28T07:32:40;21.90;;;10.32;;
66327;SDS011;53133;52.862;6.602;2023-02-28T07:35:06;19.02;;;10.90;;
66327;SDS011;53133;52.862;6.602;2023-02-28T07:37:32;18.05;;;10.60;;
66327;SDS011;53133;52.862;6.602;2023-02-28T07:40:02;19.00;;;10.88;;
66327;SDS011;53133;52.862;6.602;2023-02-28T07:42:36;20.63;;;11.17;;
66327;SDS011;53133;52.862;6.602;2023-02-28T07:45:02;24.70;;;12.05;;
66327;SDS011;53133;52.862;6.602;2023-02-28T07:47:29;20.30;;;10.30;;
66327;SDS011;53133;52.862;6.602;2023-02-28T07:49:55;18.63;;;11.07;;
66327;SDS011;53133;52.862;6.602;2023-02-28T07:52:21;21.27;;;11.18;;
66327;SDS011;53133;52.862;6.602;2023-02-28T07:54:48;18.58;;;10.55;;
66327;SDS011;53133;52.862;6.602;2023-02-28T07:57:17;17.45;;;10.45;;
66327;SDS011;53133;52.862;6.602;2023-02-28T07:59:43;17.65;;;10.65;;
66327;SDS011;53133;52.862;6.602;2023-02-28T08:02:13;21.35;;;10.30;;
66327;SDS011;53133;52.862;6.602;2023-02-28T08:04:39;19.80;;;10.75;;
66327;SDS011;53133;52.862;6.602;2023-02-28T08:07:05;19.77;;;10.48;;
66327;SDS011;53133;52.862;6.602;2023-02-28T08:09:30;20.35;;;11.02;;
66327;SDS011;53133;52.862;6.602;2023-02-28T08:11:56;17.10;;;9.98;;
66327;SDS011;53133;52.862;6.602;2023-02-28T08:14:22;16.77;;;10.40;;
66327;SDS011;53133;52.862;6.602;2023-02-28T08:16:47;18.95;;;10.13;;
66327;SDS011;53133;52.862;6.602;2023-02-28T08:19:13;22.88;;;10.65;;
66327;SDS011;53133;52.862;6.602;2023-02-28T08:21:39;17.85;;;10.18;;
66327;SDS011;53133;52.862;6.602;2023-02-28T08:24:05;19.80;;;10.90;;
66327;SDS011;53133;52.862;6.602;2023-02-28T08:26:31;20.02;;;10.60;;
66327;SDS011;53133;52.862;6.602;2023-02-28T08:28:56;20.42;;;10.75;;
66327;SDS011;53133;52.862;6.602;2023-02-28T08:31:22;23.35;;;11.10;;
66327;SDS011;53133;52.862;6.602;2023-02-28T08:33:48;18.25;;;10.90;;
66327;SDS011;53133;52.862;6.602;2023-02-28T08:36:16;17.33;;;10.43;;
66327;SDS011;53133;52.862;6.602;2023-02-28T08:38:42;19.30;;;9.40;;
66327;SDS011;53133;52.862;6.602;2023-02-28T08:41:09;15.75;;;9.77;;
66327;SDS011;53133;52.862;6.602;2023-02-28T08:43:36;15.32;;;9.82;;
66327;SDS011;53133;52.862;6.602;2023-02-28T08:46:02;19.45;;;10.95;;
66327;SDS011;53133;52.862;6.602;2023-02-28T08:48:29;16.20;;;10.27;;
66327;SDS011;53133;52.862;6.602;2023-02-28T08:50:59;16.40;;;10.00;;
66327;SDS011;53133;52.862;6.602;2023-02-28T08:53:27;17.77;;;10.27;;
66327;SDS011;53133;52.862;6.602;2023-02-28T08:55:59;17.23;;;10.02;;
66327;SDS011;53133;52.862;6.602;2023-02-28T08:58:27;17.85;;;10.27;;
66327;SDS011;53133;52.862;6.602;2023-02-28T09:00:53;17.27;;;10.88;;
66327;SDS011;53133;52.862;6.602;2023-02-28T09:03:19;16.90;;;10.07;;
66327;SDS011;53133;52.862;6.602;2023-02-28T09:05:59;17.58;;;9.95;;
66327;SDS011;53133;52.862;6.602;2023-02-28T09:08:28;15.60;;;9.57;;
66327;SDS011;53133;52.862;6.602;2023-02-28T09:10:55;12.15;;;8.30;;
66327;SDS011;53133;52.862;6.602;2023-02-28T09:13:23;13.05;;;8.25;;
66327;SDS011;53133;52.862;6.602;2023-02-28T09:15:49;16.73;;;9.32;;
66327;SDS011;53133;52.862;6.602;2023-02-28T09:18:15;13.27;;;7.88;;
66327;SDS011;53133;52.862;6.602;2023-02-28T09:20:41;12.90;;;8.63;;
66327;SDS011;53133;52.862;6.602;2023-02-28T09:23:08;16.33;;;8.43;;
66327;SDS011;53133;52.862;6.602;2023-02-28T09:25:35;14.63;;;7.88;;
66327;SDS011;53133;52.862;6.602;2023-02-28T09:28:01;14.63;;;8.30;;
66327;SDS011;53133;52.862;6.602;2023-02-28T09:30:27;16.35;;;8.60;;
66327;SDS011;53133;52.862;6.602;2023-02-28T09:32:53;14.88;;;8.30;;
66327;SDS011;53133;52.862;6.602;2023-02-28T09:35:23;11.57;;;8.23;;
66327;SDS011;53133;52.862;6.602;2023-02-28T09:37:50;11.70;;;7.28;;
66327;SDS011;53133;52.862;6.602;2023-02-28T09:40:20;10.30;;;7.05;;
66327;SDS011;53133;52.862;6.602;2023-02-28T09:42:49;10.57;;;7.18;;
66327;SDS011;53133;52.862;6.602;2023-02-28T09:45:28;12.38;;;7.47;;
66327;SDS011;53133;52.862;6.602;2023-02-28T09:48:21;10.85;;;7.00;;
66327;SDS011;53133;52.862;6.602;2023-02-28T09:50:50;13.80;;;7.15;;
66327;SDS011;53133;52.862;6.602;2023-02-28T09:53:25;12.75;;;7.65;;
66327;SDS011;53133;52.862;6.602;2023-02-28T09:55:58;13.05;;;7.55;;
66327;SDS011;53133;52.862;6.602;2023-02-28T09:58:30;11.25;;;7.40;;
66327;SDS011;53133;52.862;6.602;2023-02-28T10:01:09;10.27;;;6.78;;
66327;SDS011;53133;52.862;6.602;2023-02-28T10:04:03;12.80;;;7.53;;
66327;SDS011;53133;52.862;6.602;2023-02-28T10:06:44;9.95;;;6.25;;
66327;SDS011;53133;52.862;6.602;2023-02-28T10:11:47;9.27;;;6.28;;
66327;SDS011;53133;52.862;6.602;2023-02-28T10:14:16;8.02;;;5.75;;
66327;SDS011;53133;52.862;6.602;2023-02-28T10:16:46;7.75;;;5.35;;
66327;SDS011;53133;52.862;6.602;2023-02-28T10:21:59;8.68;;;4.88;;
66327;SDS011;53133;52.862;6.602;2023-02-28T10:24:41;10.65;;;5.38;;
66327;SDS011;53133;52.862;6.602;2023-02-28T10:27:18;8.82;;;5.10;;
66327;SDS011;53133;52.862;6.602;2023-02-28T10:29:48;7.28;;;4.75;;
66327;SDS011;53133;52.862;6.602;2023-02-28T10:35:11;8.15;;;5.10;;
66327;SDS011;53133;52.862;6.602;2023-02-28T10:37:42;6.20;;;4.53;;
66327;SDS011;53133;52.862;6.602;2023-02-28T10:40:25;8.55;;;5.22;;
66327;SDS011;53133;52.862;6.602;2023-02-28T10:43:04;6.93;;;4.78;;
66327;SDS011;53133;52.862;6.602;2023-02-28T10:46:02;9.45;;;4.65;;
66327;SDS011;53133;52.862;6.602;2023-02-28T10:51:05;5.78;;;4.28;;
66327;SDS011;53133;52.862;6.602;2023-02-28T10:53:53;7.22;;;4.22;;
66327;SDS011;53133;52.862;6.602;2023-02-28T10:56:21;6.93;;;4.22;;
66327;SDS011;53133;52.862;6.602;2023-02-28T11:03:49;5.47;;;3.75;;
66327;SDS011;53133;52.862;6.602;2023-02-28T11:06:25;5.68;;;3.95;;
66327;SDS011;53133;52.862;6.602;2023-02-28T11:09:03;4.95;;;3.58;;
66327;SDS011;53133;52.862;6.602;2023-02-28T11:11:31;6.47;;;3.88;;
66327;SDS011;53133;52.862;6.602;2023-02-28T11:14:16;5.57;;;3.70;;
66327;SDS011;53133;52.862;6.602;2023-02-28T11:16:47;6.03;;;4.03;;
66327;SDS011;53133;52.862;6.602;2023-02-28T11:19:28;5.65;;;3.45;;
66327;SDS011;53133;52.862;6.602;2023-02-28T11:22:02;6.35;;;3.60;;
66327;SDS011;53133;52.862;6.602;2023-02-28T11:24:33;6.47;;;3.60;;
66327;SDS011;53133;52.862;6.602;2023-02-28T11:27:43;4.90;;;3.60;;
66327;SDS011;53133;52.862;6.602;2023-02-28T11:32:57;4.63;;;3.30;;
66327;SDS011;53133;52.862;6.602;2023-02-28T11:35:24;6.82;;;3.25;;
66327;SDS011;53133;52.862;6.602;2023-02-28T11:37:54;6.63;;;3.88;;
66327;SDS011;53133;52.862;6.602;2023-02-28T11:40:31;6.63;;;4.05;;
66327;SDS011;53133;52.862;6.602;2023-02-28T11:46:00;5.35;;;3.97;;
66327;SDS011;53133;52.862;6.602;2023-02-28T11:48:49;5.95;;;3.80;;
66327;SDS011;53133;52.862;6.602;2023-02-28T11:51:28;8.10;;;4.03;;
66327;SDS011;53133;52.862;6.602;2023-02-28T11:54:08;5.00;;;3.67;;
66327;SDS011;53133;52.862;6.602;2023-02-28T11:56:58;6.30;;;3.92;;
66327;SDS011;53133;52.862;6.602;2023-02-28T12:05:16;4.05;;;3.45;;
66327;SDS011;53133;52.862;6.602;2023-02-28T12:10:50;4.57;;;3.40;;
66327;SDS011;53133;52.862;6.602;2023-02-28T12:13:48;5.00;;;3.67;;
66327;SDS011;53133;52.862;6.602;2023-02-28T12:24:47;4.95;;;4.45;;
66327;SDS011;53133;52.862;6.602;2023-02-28T12:27:32;6.40;;;4.75;;
66327;SDS011;53133;52.862;6.602;2023-02-28T12:30:05;5.85;;;4.53;;
66327;SDS011;53133;52.862;6.602;2023-02-28T12:32:42;7.70;;;4.40;;
66327;SDS011;53133;52.862;6.602;2023-02-28T12:35:12;6.72;;;4.50;;
66327;SDS011;53133;52.862;6.602;2023-02-28T12:37:47;6.10;;;4.13;;
66327;SDS011;53133;52.862;6.602;2023-02-28T12:40:22;6.45;;;4.22;;
66327;SDS011;53133;52.862;6.602;2023-02-28T12:47:48;5.30;;;3.30;;
66327;SDS011;53133;52.862;6.602;2023-02-28T12:50:17;5.18;;;3.58;;
66327;SDS011;53133;52.862;6.602;2023-02-28T12:55:15;5.47;;;2.97;;
66327;SDS011;53133;52.862;6.602;2023-02-28T13:00:38;4.70;;;3.17;;
66327;SDS011;53133;52.862;6.602;2023-02-28T13:11:29;4.97;;;3.13;;
66327;SDS011;53133;52.862;6.602;2023-02-28T13:14:04;3.92;;;3.38;;
66327;SDS011;53133;52.862;6.602;2023-02-28T13:16:54;4.30;;;3.40;;
66327;SDS011;53133;52.862;6.602;2023-02-28T13:19:23;3.80;;;3.40;;
66327;SDS011;53133;52.862;6.602;2023-02-28T13:21:54;6.07;;;3.55;;
66327;SDS011;53133;52.862;6.602;2023-02-28T13:34:36;7.32;;;3.55;;
66327;SDS011;53133;52.862;6.602;2023-02-28T13:49:55;5.57;;;3.50;;
66327;SDS011;53133;52.862;6.602;2023-02-28T13:55:24;4.80;;;3.58;;
66327;SDS011;53133;52.862;6.602;2023-02-28T14:05:34;6.03;;;3.95;;
66327;SDS011;53133;52.862;6.602;2023-02-28T14:08:20;6.10;;;4.50;;
66327;SDS011;53133;52.862;6.602;2023-02-28T14:10:52;6.82;;;4.32;;
66327;SDS011;53133;52.862;6.602;2023-02-28T14:13:36;6.55;;;4.00;;
66327;SDS011;53133;52.862;6.602;2023-02-28T14:16:05;5.55;;;4.38;;
66327;SDS011;53133;52.862;6.602;2023-02-28T14:18:32;5.03;;;4.28;;
66327;SDS011;53133;52.862;6.602;2023-02-28T14:21:11;4.32;;;3.60;;
66327;SDS011;53133;52.862;6.602;2023-02-28T14:29:44;5.93;;;4.13;;
66327;SDS011;53133;52.862;6.602;2023-02-28T14:32:18;7.72;;;4.85;;
66327;SDS011;53133;52.862;6.602;2023-02-28T14:35:02;5.45;;;4.60;;
66327;SDS011;53133;52.862;6.602;2023-02-28T14:37:29;7.30;;;5.10;;
66327;SDS011;53133;52.862;6.602;2023-02-28T14:39:58;7.22;;;4.70;;
66327;SDS011;53133;52.862;6.602;2023-02-28T14:42:29;5.60;;;4.97;;
66327;SDS011;53133;52.862;6.602;2023-02-28T14:45:01;5.60;;;4.90;;
66327;SDS011;53133;52.862;6.602;2023-02-28T14:47:28;6.32;;;5.07;;
66327;SDS011;53133;52.862;6.602;2023-02-28T14:49:58;6.38;;;5.10;;
66327;SDS011;53133;52.862;6.602;2023-02-28T14:52:29;8.35;;;5.10;;
66327;SDS011;53133;52.862;6.602;2023-02-28T14:57:28;7.22;;;4.40;;
66327;SDS011;53133;52.862;6.602;2023-02-28T15:02:29;6.53;;;4.70;;
66327;SDS011;53133;52.862;6.602;2023-02-28T15:05:00;5.95;;;4.90;;
66327;SDS011;53133;52.862;6.602;2023-02-28T15:07:41;5.88;;;4.85;;
66327;SDS011;53133;52.862;6.602;2023-02-28T15:10:09;7.82;;;4.65;;
66327;SDS011;53133;52.862;6.602;2023-02-28T15:12:46;6.47;;;4.60;;
66327;SDS011;53133;52.862;6.602;2023-02-28T15:15:22;5.95;;;4.45;;
66327;SDS011;53133;52.862;6.602;2023-02-28T15:18:00;5.88;;;4.10;;
66327;SDS011;53133;52.862;6.602;2023-02-28T15:20:30;7.00;;;4.25;;
66327;SDS011;53133;52.862;6.602;2023-02-28T15:22:57;7.03;;;4.20;;
66327;SDS011;53133;52.862;6.602;2023-02-28T15:25:24;4.53;;;3.60;;
66327;SDS011;53133;52.862;6.602;2023-02-28T15:27:52;6.35;;;4.20;;
66327;SDS011;53133;52.862;6.602;2023-02-28T15:30:21;6.40;;;4.45;;
66327;SDS011;53133;52.862;6.602;2023-02-28T15:33:05;6.18;;;4.65;;
66327;SDS011;53133;52.862;6.602;2023-02-28T15:35:45;5.18;;;4.35;;
66327;SDS011;53133;52.862;6.602;2023-02-28T15:40:53;7.93;;;4.72;;
66327;SDS011;53133;52.862;6.602;2023-02-28T15:45:49;5.65;;;4.60;;
66327;SDS011;53133;52.862;6.602;2023-02-28T15:50:46;5.13;;;4.43;;
66327;SDS011;53133;52.862;6.602;2023-02-28T15:53:18;7.18;;;6.05;;
66327;SDS011;53133;52.862;6.602;2023-02-28T15:55:52;7.93;;;5.47;;
66327;SDS011;53133;52.862;6.602;2023-02-28T15:58:21;8.10;;;5.38;;
66327;SDS011;53133;52.862;6.602;2023-02-28T16:00:59;7.40;;;4.55;;
66327;SDS011;53133;52.862;6.602;2023-02-28T16:03:44;7.22;;;5.70;;
66327;SDS011;53133;52.862;6.602;2023-02-28T16:06:21;7.53;;;5.18;;
66327;SDS011;53133;52.862;6.602;2023-02-28T16:09:01;36.35;;;27.48;;
66327;SDS011;53133;52.862;6.602;2023-02-28T16:11:28;9.57;;;6.22;;
66327;SDS011;53133;52.862;6.602;2023-02-28T16:13:54;5.72;;;5.10;;
66327;SDS011;53133;52.862;6.602;2023-02-28T16:16:20;5.68;;;5.07;;
66327;SDS011;53133;52.862;6.602;2023-02-28T16:18:49;5.40;;;4.90;;
66327;SDS011;53133;52.862;6.602;2023-02-28T16:21:15;8.43;;;5.03;;
66327;SDS011;53133;52.862;6.602;2023-02-28T16:23:41;7.53;;;5.65;;
66327;SDS011;53133;52.862;6.602;2023-02-28T16:26:06;7.88;;;5.10;;
66327;SDS011;53133;52.862;6.602;2023-02-28T16:28:34;5.82;;;4.63;;
66327;SDS011;53133;52.862;6.602;2023-02-28T16:31:02;8.40;;;6.38;;
66327;SDS011;53133;52.862;6.602;2023-02-28T16:33:29;6.43;;;4.78;;
66327;SDS011;53133;52.862;6.602;2023-02-28T16:35:56;5.97;;;4.90;;
66327;SDS011;53133;52.862;6.602;2023-02-28T16:38:22;6.30;;;5.00;;
66327;SDS011;53133;52.862;6.602;2023-02-28T16:40:50;6.28;;;5.15;;
66327;SDS011;53133;52.862;6.602;2023-02-28T16:43:21;7.95;;;5.68;;
66327;SDS011;53133;52.862;6.602;2023-02-28T16:45:54;6.43;;;5.47;;
66327;SDS011;53133;52.862;6.602;2023-02-28T16:48:21;5.85;;;5.18;;
66327;SDS011;53133;52.862;6.602;2023-02-28T16:50:47;6.82;;;4.97;;
66327;SDS011;53133;52.862;6.602;2023-02-28T16:53:12;10.80;;;5.63;;
66327;SDS011;53133;52.862;6.602;2023-02-28T16:55:38;6.18;;;5.50;;
66327;SDS011;53133;52.862;6.602;2023-02-28T16:58:04;6.07;;;5.15;;
66327;SDS011;53133;52.862;6.602;2023-02-28T17:00:30;7.68;;;5.13;;
66327;SDS011;53133;52.862;6.602;2023-02-28T17:02:57;7.88;;;5.38;;
66327;SDS011;53133;52.862;6.602;2023-02-28T17:05:24;7.05;;;5.10;;
66327;SDS011;53133;52.862;6.602;2023-02-28T17:07:50;7.95;;;5.40;;
66327;SDS011;53133;52.862;6.602;2023-02-28T17:10:17;6.72;;;5.65;;
66327;SDS011;53133;52.862;6.602;2023-02-28T17:12:45;6.88;;;5.32;;